sensor_id;sensor_type;location;lat;lon;timestamp;pressure;altitude;pressure_sealevel;temperature;humidity
40612;BME280;26317;44.894;20.286;2023-04-27T00:01:24;100852.66;;;7.98;58.96
40612;BME280;26317;44.894;20.286;2023-04-27T00:04:03;100863.34;;;7.98;59.06
40612;BME280;26317;44.894;20.286;2023-04-27T00:06:43;100858.91;;;7.87;59.39
40612;BME280;26317;44.894;20.286;2023-04-27T00:09:23;100854.78;;;7.79;59.28
40612;BME280;26317;44.894;20.286;2023-04-27T00:12:02;100843.94;;;7.69;59.84
40612;BME280;26317;44.894;20.286;2023-04-27T00:14:35;100854.00;;;7.62;59.71
40612;BME280;26317;44.894;20.286;2023-04-27T00:17:13;100858.34;;;7.52;59.90
40612;BME280;26317;44.894;20.286;2023-04-27T00:19:51;100846.38;;;7.37;60.36
40612;BME280;26317;44.894;20.286;2023-04-27T00:22:28;100858.09;;;7.36;60.56
40612;BME280;26317;44.894;20.286;2023-04-27T00:25:04;100858.50;;;7.28;60.81
40612;BME280;26317;44.894;20.286;2023-04-27T00:27:44;100845.06;;;7.23;60.71
40612;BME280;26317;44.894;20.286;2023-04-27T00:30:24;100851.22;;;7.24;60.55
40612;BME280;26317;44.894;20.286;2023-04-27T00:33:00;100846.28;;;7.16;61.50
40612;BME280;26317;44.894;20.286;2023-04-27T00:35:36;100847.31;;;7.15;61.17
40612;BME280;26317;44.894;20.286;2023-04-27T00:38:13;100804.13;;;6.84;61.35
40612;BME280;26317;44.894;20.286;2023-04-27T00:40:50;100852.75;;;7.20;61.36
40612;BME280;26317;44.894;20.286;2023-04-27T00:43:27;100842.56;;;7.17;61.76
40612;BME280;26317;44.894;20.286;2023-04-27T00:46:07;100850.41;;;7.23;61.00
40612;BME280;26317;44.894;20.286;2023-04-27T00:48:53;100848.16;;;7.32;60.92
40612;BME280;26317;44.894;20.286;2023-04-27T00:51:31;100830.69;;;7.24;60.77
40612;BME280;26317;44.894;20.286;2023-04-27T00:54:08;100810.88;;;7.04;61.06
40612;BME280;26317;44.894;20.286;2023-04-27T00:56:43;100854.22;;;7.27;60.74
40612;BME280;26317;44.894;20.286;2023-04-27T00:59:23;100851.38;;;7.17;61.10
40612;BME280;26317;44.894;20.286;2023-04-27T01:01:57;100855.31;;;7.15;61.38
40612;BME280;26317;44.894;20.286;2023-04-27T01:04:36;100864.78;;;7.22;61.51
40612;BME280;26317;44.894;20.286;2023-04-27T01:07:09;100862.22;;;7.27;61.35
40612;BME280;26317;44.894;20.286;2023-04-27T01:12:36;100864.06;;;7.27;60.97
40612;BME280;26317;44.894;20.286;2023-04-27T01:15:16;100856.84;;;7.11;60.86
40612;BME280;26317;44.894;20.286;2023-04-27T01:17:59;100868.97;;;7.18;60.98
40612;BME280;26317;44.894;20.286;2023-04-27T01:20:36;100844.16;;;7.01;61.47
40612;BME280;26317;44.894;20.286;2023-04-27T01:23:17;100874.50;;;7.28;61.05
40612;BME280;26317;44.894;20.286;2023-04-27T01:25:52;100872.44;;;7.30;60.65
40612;BME280;26317;44.894;20.286;2023-04-27T01:28:28;100875.66;;;7.32;60.62
40612;BME280;26317;44.894;20.286;2023-04-27T01:31:06;100872.50;;;7.35;60.36
40612;BME280;26317;44.894;20.286;2023-04-27T01:33:51;100866.09;;;7.36;60.51
40612;BME280;26317;44.894;20.286;2023-04-27T01:36:40;100870.63;;;7.36;61.26
40612;BME280;26317;44.894;20.286;2023-04-27T01:39:15;100884.97;;;7.47;61.07
40612;BME280;26317;44.894;20.286;2023-04-27T01:41:47;100883.91;;;7.48;60.97
40612;BME280;26317;44.894;20.286;2023-04-27T01:44:27;100883.66;;;7.49;61.06
40612;BME280;26317;44.894;20.286;2023-04-27T01:47:03;100885.03;;;7.52;61.04
40612;BME280;26317;44.894;20.286;2023-04-27T01:49:45;100874.13;;;7.36;61.04
40612;BME280;26317;44.894;20.286;2023-04-27T01:52:24;100885.66;;;7.25;61.26
40612;BME280;26317;44.894;20.286;2023-04-27T01:55:08;100890.81;;;7.15;61.72
40612;BME280;26317;44.894;20.286;2023-04-27T01:57:42;100886.84;;;7.01;62.40
40612;BME280;26317;44.894;20.286;2023-04-27T02:00:20;100882.91;;;6.92;63.05
40612;BME280;26317;44.894;20.286;2023-04-27T02:02:56;100884.91;;;6.85;63.59
40612;BME280;26317;44.894;20.286;2023-04-27T02:05:30;100878.78;;;6.84;63.50
40612;BME280;26317;44.894;20.286;2023-04-27T02:08:07;100885.03;;;6.78;64.32
40612;BME280;26317;44.894;20.286;2023-04-27T02:10:44;100897.00;;;6.76;64.12
40612;BME280;26317;44.894;20.286;2023-04-27T02:13:34;100881.94;;;6.70;64.34
40612;BME280;26317;44.894;20.286;2023-04-27T02:16:09;100884.94;;;6.73;64.10
40612;BME280;26317;44.894;20.286;2023-04-27T02:18:50;100897.66;;;6.83;63.95
40612;BME280;26317;44.894;20.286;2023-04-27T02:21:34;100900.44;;;6.88;63.38
40612;BME280;26317;44.894;20.286;2023-04-27T02:24:13;100899.03;;;6.85;64.26
40612;BME280;26317;44.894;20.286;2023-04-27T02:26:52;100896.63;;;6.84;64.11
40612;BME280;26317;44.894;20.286;2023-04-27T02:29:28;100887.94;;;6.77;63.69
40612;BME280;26317;44.894;20.286;2023-04-27T02:32:17;100900.00;;;6.79;64.34
40612;BME280;26317;44.894;20.286;2023-04-27T02:34:50;100875.69;;;6.64;64.35
40612;BME280;26317;44.894;20.286;2023-04-27T02:37:28;100901.63;;;6.80;64.48
40612;BME280;26317;44.894;20.286;2023-04-27T02:40:04;100898.72;;;6.82;63.91
40612;BME280;26317;44.894;20.286;2023-04-27T02:42:50;100903.81;;;6.83;63.62
40612;BME280;26317;44.894;20.286;2023-04-27T02:45:26;100911.22;;;6.81;63.41
40612;BME280;26317;44.894;20.286;2023-04-27T02:48:03;100914.38;;;6.78;63.45
40612;BME280;26317;44.894;20.286;2023-04-27T02:50:47;100913.56;;;6.78;63.84
40612;BME280;26317;44.894;20.286;2023-04-27T02:53:26;100914.59;;;6.77;63.81
40612;BME280;26317;44.894;20.286;2023-04-27T02:56:02;100918.06;;;6.77;63.79
40612;BME280;26317;44.894;20.286;2023-04-27T02:58:40;100924.56;;;6.81;64.24
40612;BME280;26317;44.894;20.286;2023-04-27T03:01:23;100931.50;;;6.82;63.99
40612;BME280;26317;44.894;20.286;2023-04-27T03:04:04;100933.16;;;6.83;63.89
40612;BME280;26317;44.894;20.286;2023-04-27T03:06:53;100922.22;;;6.85;64.36
40612;BME280;26317;44.894;20.286;2023-04-27T03:09:27;100918.84;;;6.89;63.68
40612;BME280;26317;44.894;20.286;2023-04-27T03:12:09;100924.50;;;6.93;63.59
40612;BME280;26317;44.894;20.286;2023-04-27T03:14:56;100918.03;;;6.89;63.31
40612;BME280;26317;44.894;20.286;2023-04-27T03:17:34;100918.41;;;6.92;63.11
40612;BME280;26317;44.894;20.286;2023-04-27T03:23:00;100916.63;;;6.98;63.39
40612;BME280;26317;44.894;20.286;2023-04-27T03:25:40;100924.72;;;7.03;63.20
40612;BME280;26317;44.894;20.286;2023-04-27T03:28:22;100933.88;;;7.07;62.92
40612;BME280;26317;44.894;20.286;2023-04-27T03:30:56;100923.78;;;7.09;62.67
40612;BME280;26317;44.894;20.286;2023-04-27T03:33:32;100932.34;;;7.11;62.58
40612;BME280;26317;44.894;20.286;2023-04-27T03:36:08;100934.47;;;7.09;62.50
40612;BME280;26317;44.894;20.286;2023-04-27T03:38:46;100930.88;;;7.04;62.29
40612;BME280;26317;44.894;20.286;2023-04-27T03:41:26;100927.19;;;6.93;62.27
40612;BME280;26317;44.894;20.286;2023-04-27T03:44:03;100928.50;;;6.79;62.62
40612;BME280;26317;44.894;20.286;2023-04-27T03:46:40;100928.28;;;6.69;62.94
40612;BME280;26317;44.894;20.286;2023-04-27T03:49:24;100937.59;;;6.55;63.29
40612;BME280;26317;44.894;20.286;2023-04-27T03:52:12;100945.84;;;6.41;64.06
40612;BME280;26317;44.894;20.286;2023-04-27T03:54:45;100947.13;;;6.27;64.69
40612;BME280;26317;44.894;20.286;2023-04-27T03:57:28;100947.00;;;6.11;65.49
40612;BME280;26317;44.894;20.286;2023-04-27T04:00:06;100956.28;;;6.08;66.48
40612;BME280;26317;44.894;20.286;2023-04-27T04:03:02;100954.16;;;5.98;66.72
40612;BME280;26317;44.894;20.286;2023-04-27T04:05:42;100961.59;;;5.96;67.22
40612;BME280;26317;44.894;20.286;2023-04-27T04:08:19;100966.91;;;6.08;67.33
40612;BME280;26317;44.894;20.286;2023-04-27T04:11:01;100970.28;;;6.15;66.98
40612;BME280;26317;44.894;20.286;2023-04-27T04:13:36;100979.53;;;6.24;66.52
40612;BME280;26317;44.894;20.286;2023-04-27T04:16:09;100970.53;;;6.25;67.68
40612;BME280;26317;44.894;20.286;2023-04-27T04:18:49;100976.75;;;6.31;67.52
40612;BME280;26317;44.894;20.286;2023-04-27T04:21:28;100977.91;;;6.35;67.57
40612;BME280;26317;44.894;20.286;2023-04-27T04:24:04;100954.97;;;6.22;67.77
40612;BME280;26317;44.894;20.286;2023-04-27T04:26:38;100981.41;;;6.47;67.22
40612;BME280;26317;44.894;20.286;2023-04-27T04:29:21;100983.94;;;6.54;67.44
40612;BME280;26317;44.894;20.286;2023-04-27T04:31:56;100991.94;;;6.54;67.82
40612;BME280;26317;44.894;20.286;2023-04-27T04:34:46;100989.63;;;6.57;67.82
40612;BME280;26317;44.894;20.286;2023-04-27T04:37:23;100987.53;;;6.59;67.70
40612;BME280;26317;44.894;20.286;2023-04-27T04:39:59;100992.63;;;6.61;68.54
40612;BME280;26317;44.894;20.286;2023-04-27T04:42:34;100998.06;;;6.66;69.35
40612;BME280;26317;44.894;20.286;2023-04-27T04:45:12;101012.88;;;6.73;70.05
40612;BME280;26317;44.894;20.286;2023-04-27T04:47:58;101006.84;;;6.78;70.25
40612;BME280;26317;44.894;20.286;2023-04-27T04:50:38;101008.00;;;6.82;70.73
40612;BME280;26317;44.894;20.286;2023-04-27T04:53:15;101004.16;;;6.89;69.87
40612;BME280;26317;44.894;20.286;2023-04-27T04:55:51;101011.59;;;6.99;70.56
40612;BME280;26317;44.894;20.286;2023-04-27T04:58:29;101004.63;;;6.98;69.66
40612;BME280;26317;44.894;20.286;2023-04-27T05:01:05;101012.72;;;7.03;69.56
40612;BME280;26317;44.894;20.286;2023-04-27T05:03:58;101021.88;;;7.07;69.00
40612;BME280;26317;44.894;20.286;2023-04-27T05:06:43;100989.69;;;6.85;68.54
40612;BME280;26317;44.894;20.286;2023-04-27T05:09:17;101024.66;;;7.12;67.95
40612;BME280;26317;44.894;20.286;2023-04-27T05:12:00;101021.41;;;7.10;68.12
40612;BME280;26317;44.894;20.286;2023-04-27T05:14:40;101026.97;;;7.20;68.78
40612;BME280;26317;44.894;20.286;2023-04-27T05:17:20;101024.13;;;7.27;69.13
40612;BME280;26317;44.894;20.286;2023-04-27T05:19:59;101022.63;;;7.31;69.21
40612;BME280;26317;44.894;20.286;2023-04-27T05:22:39;101026.78;;;7.38;69.45
40612;BME280;26317;44.894;20.286;2023-04-27T05:25:23;101039.75;;;7.47;69.39
40612;BME280;26317;44.894;20.286;2023-04-27T05:28:00;101037.00;;;7.42;69.01
40612;BME280;26317;44.894;20.286;2023-04-27T05:30:40;101045.66;;;7.49;69.46
40612;BME280;26317;44.894;20.286;2023-04-27T05:33:17;101034.28;;;7.53;69.73
40612;BME280;26317;44.894;20.286;2023-04-27T05:35:53;101037.97;;;7.52;69.95
40612;BME280;26317;44.894;20.286;2023-04-27T05:38:55;101042.13;;;7.60;69.09
40612;BME280;26317;44.894;20.286;2023-04-27T05:41:32;101044.44;;;7.68;68.97
40612;BME280;26317;44.894;20.286;2023-04-27T05:44:09;101049.84;;;7.73;69.50
40612;BME280;26317;44.894;20.286;2023-04-27T05:46:48;101054.25;;;7.79;71.33
40612;BME280;26317;44.894;20.286;2023-04-27T05:49:27;101055.28;;;7.78;71.57
40612;BME280;26317;44.894;20.286;2023-04-27T05:52:09;101055.94;;;7.85;71.28
40612;BME280;26317;44.894;20.286;2023-04-27T05:54:54;101054.09;;;7.85;70.01
40612;BME280;26317;44.894;20.286;2023-04-27T05:57:37;101061.69;;;7.94;70.33
40612;BME280;26317;44.894;20.286;2023-04-27T06:00:22;101065.28;;;7.99;69.23
40612;BME280;26317;44.894;20.286;2023-04-27T06:02:58;101075.41;;;7.97;69.18
40612;BME280;26317;44.894;20.286;2023-04-27T06:05:32;101068.22;;;8.14;70.61
40612;BME280;26317;44.894;20.286;2023-04-27T06:08:07;101066.75;;;8.23;68.74
40612;BME280;26317;44.894;20.286;2023-04-27T06:10:55;101074.88;;;8.28;66.61
40612;BME280;26317;44.894;20.286;2023-04-27T06:13:32;101067.06;;;8.39;65.62
40612;BME280;26317;44.894;20.286;2023-04-27T06:16:09;101077.19;;;8.53;65.95
40612;BME280;26317;44.894;20.286;2023-04-27T06:18:43;101081.47;;;8.71;64.38
40612;BME280;26317;44.894;20.286;2023-04-27T06:21:19;101089.19;;;8.89;65.22
40612;BME280;26317;44.894;20.286;2023-04-27T06:24:02;101086.75;;;9.04;64.42
40612;BME280;26317;44.894;20.286;2023-04-27T06:26:42;101084.78;;;9.16;65.55
40612;BME280;26317;44.894;20.286;2023-04-27T06:29:14;101093.13;;;9.42;64.66
40612;BME280;26317;44.894;20.286;2023-04-27T06:31:49;101097.06;;;9.34;63.25
40612;BME280;26317;44.894;20.286;2023-04-27T06:34:23;101106.31;;;9.48;64.38
40612;BME280;26317;44.894;20.286;2023-04-27T06:36:53;101100.41;;;9.68;63.57
40612;BME280;26317;44.894;20.286;2023-04-27T06:39:25;101093.88;;;9.81;62.44
40612;BME280;26317;44.894;20.286;2023-04-27T06:42:09;101108.69;;;9.88;62.44
40612;BME280;26317;44.894;20.286;2023-04-27T06:44:43;101093.50;;;9.99;61.79
40612;BME280;26317;44.894;20.286;2023-04-27T06:47:22;101103.09;;;10.17;63.41
40612;BME280;26317;44.894;20.286;2023-04-27T06:50:00;101101.28;;;10.22;60.53
40612;BME280;26317;44.894;20.286;2023-04-27T06:52:40;101104.78;;;10.28;61.24
40612;BME280;26317;44.894;20.286;2023-04-27T06:55:16;101092.19;;;10.28;60.73
40612;BME280;26317;44.894;20.286;2023-04-27T06:58:01;101092.00;;;10.35;61.03
40612;BME280;26317;44.894;20.286;2023-04-27T07:00:39;101095.84;;;10.49;60.14
40612;BME280;26317;44.894;20.286;2023-04-27T07:03:15;101084.66;;;10.57;59.67
40612;BME280;26317;44.894;20.286;2023-04-27T07:05:49;101079.59;;;10.60;60.41
40612;BME280;26317;44.894;20.286;2023-04-27T07:08:28;101094.22;;;10.80;58.75
40612;BME280;26317;44.894;20.286;2023-04-27T07:11:09;101097.22;;;10.88;56.37
40612;BME280;26317;44.894;20.286;2023-04-27T07:13:53;101102.97;;;11.07;55.72
40612;BME280;26317;44.894;20.286;2023-04-27T07:16:29;101091.66;;;11.00;56.57
40612;BME280;26317;44.894;20.286;2023-04-27T07:19:09;101092.78;;;11.09;53.15
40612;BME280;26317;44.894;20.286;2023-04-27T07:21:42;101100.06;;;11.14;53.11
40612;BME280;26317;44.894;20.286;2023-04-27T07:24:21;101086.69;;;11.19;52.49
40612;BME280;26317;44.894;20.286;2023-04-27T07:26:58;101107.66;;;11.32;52.69
40612;BME280;26317;44.894;20.286;2023-04-27T07:29:39;101107.16;;;11.35;52.51
40612;BME280;26317;44.894;20.286;2023-04-27T07:32:17;101105.53;;;11.34;52.43
40612;BME280;26317;44.894;20.286;2023-04-27T07:34:56;101108.81;;;11.46;50.48
40612;BME280;26317;44.894;20.286;2023-04-27T07:37:30;101105.56;;;11.44;51.89
40612;BME280;26317;44.894;20.286;2023-04-27T07:40:11;101109.69;;;11.62;51.02
40612;BME280;26317;44.894;20.286;2023-04-27T07:42:46;101101.31;;;11.53;51.39
40612;BME280;26317;44.894;20.286;2023-04-27T07:45:29;101113.78;;;11.74;51.21
40612;BME280;26317;44.894;20.286;2023-04-27T07:48:08;101111.66;;;11.86;50.88
40612;BME280;26317;44.894;20.286;2023-04-27T07:50:42;101109.28;;;11.95;50.32
40612;BME280;26317;44.894;20.286;2023-04-27T07:53:17;101107.94;;;11.92;50.81
40612;BME280;26317;44.894;20.286;2023-04-27T07:55:58;101112.75;;;11.85;49.59
40612;BME280;26317;44.894;20.286;2023-04-27T07:58:33;101097.72;;;11.99;48.70
40612;BME280;26317;44.894;20.286;2023-04-27T08:01:08;101113.34;;;12.13;49.68
40612;BME280;26317;44.894;20.286;2023-04-27T08:03:39;101123.56;;;12.06;48.73
40612;BME280;26317;44.894;20.286;2023-04-27T08:06:15;101126.22;;;12.11;49.23
40612;BME280;26317;44.894;20.286;2023-04-27T08:08:54;101112.00;;;12.15;49.88
40612;BME280;26317;44.894;20.286;2023-04-27T08:11:34;101107.47;;;12.31;47.69
40612;BME280;26317;44.894;20.286;2023-04-27T08:14:11;101119.28;;;12.45;48.85
40612;BME280;26317;44.894;20.286;2023-04-27T08:16:56;101125.75;;;12.34;47.63
40612;BME280;26317;44.894;20.286;2023-04-27T08:19:30;101127.38;;;12.55;49.44
40612;BME280;26317;44.894;20.286;2023-04-27T08:22:06;101132.22;;;12.68;49.01
40612;BME280;26317;44.894;20.286;2023-04-27T08:24:46;101130.34;;;12.64;47.83
40612;BME280;26317;44.894;20.286;2023-04-27T08:27:19;101126.56;;;12.85;46.15
40612;BME280;26317;44.894;20.286;2023-04-27T08:30:03;101131.38;;;12.88;46.55
40612;BME280;26317;44.894;20.286;2023-04-27T08:32:46;101133.78;;;12.95;46.31
40612;BME280;26317;44.894;20.286;2023-04-27T08:35:26;101122.75;;;13.01;45.43
40612;BME280;26317;44.894;20.286;2023-04-27T08:38:02;101114.69;;;12.91;44.78
40612;BME280;26317;44.894;20.286;2023-04-27T08:40:41;101122.75;;;12.96;43.41
40612;BME280;26317;44.894;20.286;2023-04-27T08:43:18;101131.13;;;13.15;42.99
40612;BME280;26317;44.894;20.286;2023-04-27T08:46:02;101131.34;;;13.03;42.96
40612;BME280;26317;44.894;20.286;2023-04-27T08:48:43;101127.88;;;13.13;41.92
40612;BME280;26317;44.894;20.286;2023-04-27T08:51:25;101125.16;;;13.08;42.95
40612;BME280;26317;44.894;20.286;2023-04-27T08:54:06;101119.00;;;12.97;42.60
40612;BME280;26317;44.894;20.286;2023-04-27T08:56:44;101134.34;;;13.02;42.10
40612;BME280;26317;44.894;20.286;2023-04-27T08:59:21;101121.69;;;13.02;43.53
40612;BME280;26317;44.894;20.286;2023-04-27T09:01:56;101116.03;;;12.94;43.23
40612;BME280;26317;44.894;20.286;2023-04-27T09:04:40;101127.59;;;12.99;44.94
40612;BME280;26317;44.894;20.286;2023-04-27T09:07:18;101125.72;;;13.10;43.88
40612;BME280;26317;44.894;20.286;2023-04-27T09:10:06;101121.41;;;13.14;44.15
40612;BME280;26317;44.894;20.286;2023-04-27T09:12:54;101121.41;;;13.19;43.90
40612;BME280;26317;44.894;20.286;2023-04-27T09:15:41;101107.56;;;13.41;44.54
40612;BME280;26317;44.894;20.286;2023-04-27T09:18:17;101121.25;;;13.59;45.55
40612;BME280;26317;44.894;20.286;2023-04-27T09:21:01;101113.19;;;13.59;42.37
40612;BME280;26317;44.894;20.286;2023-04-27T09:23:38;101090.09;;;13.33;42.14
40612;BME280;26317;44.894;20.286;2023-04-27T09:26:20;101116.81;;;13.09;40.73
40612;BME280;26317;44.894;20.286;2023-04-27T09:28:55;101121.69;;;13.12;41.34
40612;BME280;26317;44.894;20.286;2023-04-27T09:31:40;101113.03;;;13.15;41.14
40612;BME280;26317;44.894;20.286;2023-04-27T09:34:20;101110.50;;;13.49;40.48
40612;BME280;26317;44.894;20.286;2023-04-27T09:37:08;101106.38;;;13.72;39.41
40612;BME280;26317;44.894;20.286;2023-04-27T09:39:51;101112.59;;;13.67;40.78
40612;BME280;26317;44.894;20.286;2023-04-27T09:42:37;101098.97;;;13.39;41.16
40612;BME280;26317;44.894;20.286;2023-04-27T09:45:13;101106.94;;;13.69;43.49
40612;BME280;26317;44.894;20.286;2023-04-27T09:47:51;101111.47;;;13.78;42.27
40612;BME280;26317;44.894;20.286;2023-04-27T09:50:36;101118.19;;;13.81;40.86
40612;BME280;26317;44.894;20.286;2023-04-27T09:53:23;101112.47;;;13.93;40.06
40612;BME280;26317;44.894;20.286;2023-04-27T09:56:15;101106.44;;;14.11;40.62
40612;BME280;26317;44.894;20.286;2023-04-27T09:59:19;101102.81;;;14.25;40.07
40612;BME280;26317;44.894;20.286;2023-04-27T10:02:05;101082.16;;;14.11;38.95
40612;BME280;26317;44.894;20.286;2023-04-27T10:05:13;101098.66;;;14.43;38.97
40612;BME280;26317;44.894;20.286;2023-04-27T10:07:56;101101.84;;;14.50;38.40
40612;BME280;26317;44.894;20.286;2023-04-27T10:10:42;101095.19;;;14.71;37.07
40612;BME280;26317;44.894;20.286;2023-04-27T10:13:34;101095.72;;;14.73;38.07
40612;BME280;26317;44.894;20.286;2023-04-27T10:16:18;101083.03;;;14.98;38.79
40612;BME280;26317;44.894;20.286;2023-04-27T10:18:55;101084.88;;;15.02;37.96
40612;BME280;26317;44.894;20.286;2023-04-27T10:21:54;101095.19;;;14.33;36.63
40612;BME280;26317;44.894;20.286;2023-04-27T10:24:40;101098.66;;;14.43;38.73
40612;BME280;26317;44.894;20.286;2023-04-27T10:27:37;101094.31;;;14.47;36.73
40612;BME280;26317;44.894;20.286;2023-04-27T10:30:20;101091.81;;;14.56;37.11
40612;BME280;26317;44.894;20.286;2023-04-27T10:33:03;101099.41;;;14.49;37.61
40612;BME280;26317;44.894;20.286;2023-04-27T10:35:52;101093.63;;;14.26;37.80
40612;BME280;26317;44.894;20.286;2023-04-27T10:38:29;101086.44;;;14.12;38.50
40612;BME280;26317;44.894;20.286;2023-04-27T10:41:13;101094.38;;;14.32;37.66
40612;BME280;26317;44.894;20.286;2023-04-27T10:43:51;101048.50;;;14.32;35.35
40612;BME280;26317;44.894;20.286;2023-04-27T10:46:28;101079.75;;;14.48;36.08
40612;BME280;26317;44.894;20.286;2023-04-27T10:49:04;101091.19;;;14.35;35.37
40612;BME280;26317;44.894;20.286;2023-04-27T10:51:42;101084.84;;;14.11;35.76
40612;BME280;26317;44.894;20.286;2023-04-27T10:54:18;101088.88;;;14.13;36.79
40612;BME280;26317;44.894;20.286;2023-04-27T10:57:00;101072.56;;;14.28;36.40
40612;BME280;26317;44.894;20.286;2023-04-27T10:59:49;101086.22;;;14.47;36.97
40612;BME280;26317;44.894;20.286;2023-04-27T11:02:26;101080.63;;;14.67;39.62
40612;BME280;26317;44.894;20.286;2023-04-27T11:05:14;101077.41;;;14.65;37.28
40612;BME280;26317;44.894;20.286;2023-04-27T11:08:06;101074.56;;;14.52;35.56
40612;BME280;26317;44.894;20.286;2023-04-27T11:10:41;101081.72;;;14.66;36.72
40612;BME280;26317;44.894;20.286;2023-04-27T11:13:28;101069.16;;;14.81;35.63
40612;BME280;26317;44.894;20.286;2023-04-27T11:16:10;101081.00;;;14.85;35.12
40612;BME280;26317;44.894;20.286;2023-04-27T11:18:54;101064.75;;;14.90;36.10
40612;BME280;26317;44.894;20.286;2023-04-27T11:21:32;101082.28;;;15.16;35.73
40612;BME280;26317;44.894;20.286;2023-04-27T11:24:09;101068.78;;;15.16;35.72
40612;BME280;26317;44.894;20.286;2023-04-27T11:26:53;101076.53;;;15.23;35.82
40612;BME280;26317;44.894;20.286;2023-04-27T11:29:38;101068.25;;;15.38;36.35
40612;BME280;26317;44.894;20.286;2023-04-27T11:32:21;101067.72;;;15.59;34.51
40612;BME280;26317;44.894;20.286;2023-04-27T11:35:00;101069.88;;;15.81;35.03
40612;BME280;26317;44.894;20.286;2023-04-27T11:37:31;101082.34;;;15.58;33.09
40612;BME280;26317;44.894;20.286;2023-04-27T11:40:08;101080.84;;;15.47;33.98
40612;BME280;26317;44.894;20.286;2023-04-27T11:42:44;101076.44;;;15.56;34.79
40612;BME280;26317;44.894;20.286;2023-04-27T11:45:26;101073.31;;;15.44;34.32
40612;BME280;26317;44.894;20.286;2023-04-27T11:48:15;101075.72;;;15.46;34.79
40612;BME280;26317;44.894;20.286;2023-04-27T11:50:52;101063.94;;;15.60;33.44
40612;BME280;26317;44.894;20.286;2023-04-27T11:53:37;101067.31;;;15.90;34.41
40612;BME280;26317;44.894;20.286;2023-04-27T11:56:15;101079.00;;;16.04;33.41
40612;BME280;26317;44.894;20.286;2023-04-27T11:58:49;101057.88;;;15.87;33.01
40612;BME280;26317;44.894;20.286;2023-04-27T12:01:24;101070.16;;;15.98;35.17
40612;BME280;26317;44.894;20.286;2023-04-27T12:04:11;101071.31;;;16.11;35.76
40612;BME280;26317;44.894;20.286;2023-04-27T12:06:48;101074.09;;;15.87;34.18
40612;BME280;26317;44.894;20.286;2023-04-27T12:09:27;101068.16;;;15.67;33.87
40612;BME280;26317;44.894;20.286;2023-04-27T12:12:10;101062.50;;;15.44;33.79
40612;BME280;26317;44.894;20.286;2023-04-27T12:14:46;101073.22;;;15.49;34.15
40612;BME280;26317;44.894;20.286;2023-04-27T12:17:41;101034.63;;;15.01;34.05
40612;BME280;26317;44.894;20.286;2023-04-27T12:20:32;101072.75;;;15.24;33.76
40612;BME280;26317;44.894;20.286;2023-04-27T12:23:09;101072.91;;;15.32;34.13
40612;BME280;26317;44.894;20.286;2023-04-27T12:25:44;101074.88;;;15.27;33.93
40612;BME280;26317;44.894;20.286;2023-04-27T12:28:21;101070.59;;;15.44;34.99
40612;BME280;26317;44.894;20.286;2023-04-27T12:31:02;101081.84;;;15.56;33.35
40612;BME280;26317;44.894;20.286;2023-04-27T12:33:43;101068.16;;;15.67;34.37
40612;BME280;26317;44.894;20.286;2023-04-27T12:36:19;101080.22;;;15.55;34.58
40612;BME280;26317;44.894;20.286;2023-04-27T12:38:51;101070.59;;;15.44;34.58
40612;BME280;26317;44.894;20.286;2023-04-27T12:41:27;101067.00;;;15.73;34.61
40612;BME280;26317;44.894;20.286;2023-04-27T12:44:05;101072.06;;;15.98;34.32
40612;BME280;26317;44.894;20.286;2023-04-27T12:46:49;101063.28;;;16.38;33.58
40612;BME280;26317;44.894;20.286;2023-04-27T12:49:30;101056.25;;;16.37;32.60
40612;BME280;26317;44.894;20.286;2023-04-27T12:52:08;101061.94;;;16.22;33.62
40612;BME280;26317;44.894;20.286;2023-04-27T12:54:47;101062.69;;;16.09;35.62
40612;BME280;26317;44.894;20.286;2023-04-27T12:57:32;101063.56;;;16.04;34.69
40612;BME280;26317;44.894;20.286;2023-04-27T13:00:16;101063.19;;;16.11;34.34
40612;BME280;26317;44.894;20.286;2023-04-27T13:02:58;101050.59;;;16.52;36.22
40612;BME280;26317;44.894;20.286;2023-04-27T13:05:38;101059.41;;;16.77;33.37
40612;BME280;26317;44.894;20.286;2023-04-27T13:08:16;101050.19;;;16.91;32.42
40612;BME280;26317;44.894;20.286;2023-04-27T13:10:54;101059.72;;;16.89;31.91
40612;BME280;26317;44.894;20.286;2023-04-27T13:13:32;101043.88;;;16.82;30.95
40612;BME280;26317;44.894;20.286;2023-04-27T13:16:08;101060.31;;;16.86;31.37
40612;BME280;26317;44.894;20.286;2023-04-27T13:18:52;101057.88;;;16.38;32.53
40612;BME280;26317;44.894;20.286;2023-04-27T13:21:27;101052.94;;;16.59;32.34
40612;BME280;26317;44.894;20.286;2023-04-27T13:24:06;101056.22;;;17.02;32.70
40612;BME280;26317;44.894;20.286;2023-04-27T13:26:52;101055.00;;;17.08;31.77
40612;BME280;26317;44.894;20.286;2023-04-27T13:29:25;101062.44;;;16.56;31.70
40612;BME280;26317;44.894;20.286;2023-04-27T13:31:59;101038.59;;;16.26;31.64
40612;BME280;26317;44.894;20.286;2023-04-27T13:34:44;101059.28;;;16.36;33.13
40612;BME280;26317;44.894;20.286;2023-04-27T13:37:20;101050.16;;;16.64;33.18
40612;BME280;26317;44.894;20.286;2023-04-27T13:39:57;101056.59;;;16.68;31.87
40612;BME280;26317;44.894;20.286;2023-04-27T13:42:37;101036.50;;;16.83;31.87
40612;BME280;26317;44.894;20.286;2023-04-27T13:45:13;101057.19;;;16.79;32.72
40612;BME280;26317;44.894;20.286;2023-04-27T13:47:45;101054.00;;;16.77;31.62
40612;BME280;26317;44.894;20.286;2023-04-27T13:50:19;101030.69;;;16.62;30.21
40612;BME280;26317;44.894;20.286;2023-04-27T13:53:04;101063.28;;;16.57;30.40
40612;BME280;26317;44.894;20.286;2023-04-27T13:55:42;101051.59;;;16.24;32.23